sensor_id;sensor_type;location;lat;lon;timestamp;pressure;altitude;pressure_sealevel;temperature;humidity
43934;BME280;59081;42.706;23.306;2023-08-24T04:39:22;95344.09;;;22.28;70.41
43934;BME280;59081;42.706;23.306;2023-08-24T04:44:25;95286.44;;;22.38;67.88
43934;BME280;59081;42.706;23.306;2023-08-24T04:49:26;95233.66;;;22.31;66.51
43934;BME280;59081;42.706;23.306;2023-08-24T04:54:33;95385.69;;;23.65;64.91
43934;BME280;59081;42.706;23.306;2023-08-24T05:05:22;95200.22;;;22.27;64.44
43934;BME280;59081;42.706;23.306;2023-08-24T05:16:43;95408.44;;;24.14;63.34
43934;BME280;59081;42.706;23.306;2023-08-24T05:21:50;95214.00;;;23.05;61.95
43934;BME280;59081;42.706;23.306;2023-08-24T05:32:45;95358.13;;;24.05;61.40
43934;BME280;59081;42.706;23.306;2023-08-24T05:37:58;95356.88;;;24.00;61.31
43934;BME280;59081;42.706;23.306;2023-08-24T05:43:14;95251.09;;;23.39;61.28
43934;BME280;59081;42.706;23.306;2023-08-24T05:48:30;95421.81;;;24.43;60.95
43934;BME280;59081;42.706;23.306;2023-08-24T05:53:48;95273.75;;;23.58;59.61
43934;BME280;59081;42.706;23.306;2023-08-24T05:59:02;95284.38;;;23.76;59.46
43934;BME280;59081;42.706;23.306;2023-08-24T06:04:09;95325.91;;;24.00;58.65
43934;BME280;59081;42.706;23.306;2023-08-24T06:09:33;95325.94;;;23.94;58.84
43934;BME280;59081;42.706;23.306;2023-08-24T06:14:42;95349.13;;;24.42;58.68
43934;BME280;59081;42.706;23.306;2023-08-24T06:20:05;95431.75;;;24.85;58.52
43934;BME280;59081;42.706;23.306;2023-08-24T06:25:23;95435.56;;;24.88;57.59
43934;BME280;59081;42.706;23.306;2023-08-24T06:31:13;95248.09;;;23.32;59.77
43934;BME280;59081;42.706;23.306;2023-08-24T06:37:15;95270.81;;;23.34;60.00
43934;BME280;59081;42.706;23.306;2023-08-24T07:00:21;95321.59;;;23.93;59.52
43934;BME280;59081;42.706;23.306;2023-08-24T07:05:22;95304.66;;;24.40;57.93
43934;BME280;59081;42.706;23.306;2023-08-24T07:10:25;95410.13;;;24.99;56.94
43934;BME280;59081;42.706;23.306;2023-08-24T07:15:29;95234.72;;;23.84;57.51
43934;BME280;59081;42.706;23.306;2023-08-24T07:20:29;95235.97;;;24.19;56.36
43934;BME280;59081;42.706;23.306;2023-08-24T07:25:30;95317.09;;;25.23;54.93
43934;BME280;59081;42.706;23.306;2023-08-24T07:30:31;95272.09;;;25.37;53.67
43934;BME280;59081;42.706;23.306;2023-08-24T07:35:32;95392.78;;;26.69;51.61
43934;BME280;59081;42.706;23.306;2023-08-24T07:40:35;95326.66;;;26.14;51.90
43934;BME280;59081;42.706;23.306;2023-08-24T07:45:41;95400.41;;;27.20;49.92
43934;BME280;59081;42.706;23.306;2023-08-24T07:50:42;95328.69;;;26.64;49.96
43934;BME280;59081;42.706;23.306;2023-08-24T07:55:43;95404.88;;;27.42;49.62
43934;BME280;59081;42.706;23.306;2023-08-24T08:06:05;95327.13;;;27.95;46.22
43934;BME280;59081;42.706;23.306;2023-08-24T08:11:06;95402.94;;;28.91;44.70
43934;BME280;59081;42.706;23.306;2023-08-24T08:16:07;95326.09;;;28.61;43.77
43934;BME280;59081;42.706;23.306;2023-08-24T08:21:15;95371.38;;;29.44;41.69
43934;BME280;59081;42.706;23.306;2023-08-24T08:26:18;95301.63;;;28.92;41.88
43934;BME280;59081;42.706;23.306;2023-08-24T08:31:18;95388.59;;;30.18;40.66
43934;BME280;59081;42.706;23.306;2023-08-24T08:36:18;95360.88;;;30.62;39.35
43934;BME280;59081;42.706;23.306;2023-08-24T08:41:22;95237.81;;;30.01;38.07
43934;BME280;59081;42.706;23.306;2023-08-24T08:46:23;95215.31;;;30.41;37.16
43934;BME280;59081;42.706;23.306;2023-08-24T08:51:25;95223.47;;;30.44;36.75
43934;BME280;59081;42.706;23.306;2023-08-24T08:56:26;95365.59;;;31.43;36.95
43934;BME280;59081;42.706;23.306;2023-08-24T09:01:27;95308.28;;;31.47;36.95
43934;BME280;59081;42.706;23.306;2023-08-24T09:06:28;95248.09;;;31.66;35.29
43934;BME280;59081;42.706;23.306;2023-08-24T09:11:28;95297.94;;;32.22;34.97
43934;BME280;59081;42.706;23.306;2023-08-24T09:16:29;95341.03;;;32.26;35.13
43934;BME280;59081;42.706;23.306;2023-08-24T09:21:30;95248.19;;;31.83;35.05
43934;BME280;59081;42.706;23.306;2023-08-24T09:26:33;95170.91;;;31.46;35.14
43934;BME280;59081;42.706;23.306;2023-08-24T09:31:37;95278.78;;;32.72;34.83
43934;BME280;59081;42.706;23.306;2023-08-24T09:36:40;95210.97;;;31.81;35.06
43934;BME280;59081;42.706;23.306;2023-08-24T09:41:43;95182.75;;;32.00;34.66
43934;BME280;59081;42.706;23.306;2023-08-24T09:46:44;95112.88;;;32.41;33.28
43934;BME280;59081;42.706;23.306;2023-08-24T09:51:45;95205.66;;;33.53;32.11
43934;BME280;59081;42.706;23.306;2023-08-24T09:56:50;95294.34;;;33.90;31.88
43934;BME280;59081;42.706;23.306;2023-08-24T10:01:51;95121.91;;;33.07;31.40
43934;BME280;59081;42.706;23.306;2023-08-24T10:07:02;95129.00;;;32.64;32.34
43934;BME280;59081;42.706;23.306;2023-08-24T10:12:04;95117.66;;;33.42;30.68
43934;BME280;59081;42.706;23.306;2023-08-24T10:17:06;95176.78;;;33.32;31.05
43934;BME280;59081;42.706;23.306;2023-08-24T10:22:12;95226.41;;;33.98;30.34
43934;BME280;59081;42.706;23.306;2023-08-24T10:27:13;95201.78;;;34.12;29.08
43934;BME280;59081;42.706;23.306;2023-08-24T10:32:14;95233.88;;;33.32;29.56
43934;BME280;59081;42.706;23.306;2023-08-24T10:37:15;95204.81;;;33.43;30.36
43934;BME280;59081;42.706;23.306;2023-08-24T10:42:16;95262.94;;;32.79;31.48
43934;BME280;59081;42.706;23.306;2023-08-24T10:47:21;95267.28;;;33.05;31.22
43934;BME280;59081;42.706;23.306;2023-08-24T10:52:34;95237.78;;;32.60;32.60
43934;BME280;59081;42.706;23.306;2023-08-24T10:57:38;95219.75;;;31.75;36.08
43934;BME280;59081;42.706;23.306;2023-08-24T11:02:49;95209.44;;;30.69;37.42
43934;BME280;59081;42.706;23.306;2023-08-24T11:07:57;95185.94;;;30.46;34.19
43934;BME280;59081;42.706;23.306;2023-08-24T11:13:11;95148.56;;;29.58;36.34
43934;BME280;59081;42.706;23.306;2023-08-24T11:18:13;95242.56;;;30.21;37.37
43934;BME280;59081;42.706;23.306;2023-08-24T11:23:18;95095.97;;;28.98;37.77
43934;BME280;59081;42.706;23.306;2023-08-24T11:28:19;95188.53;;;29.75;37.18
43934;BME280;59081;42.706;23.306;2023-08-24T11:33:29;95132.72;;;29.19;37.85
43934;BME280;59081;42.706;23.306;2023-08-24T11:38:41;95120.53;;;28.88;38.04
43934;BME280;59081;42.706;23.306;2023-08-24T11:43:46;95072.84;;;28.15;38.54
43934;BME280;59081;42.706;23.306;2023-08-24T11:48:57;95144.69;;;28.25;39.26
43934;BME280;59081;42.706;23.306;2023-08-24T11:53:59;95150.75;;;28.29;40.34
43934;BME280;59081;42.706;23.306;2023-08-24T11:58:59;95215.53;;;28.53;42.16
43934;BME280;59081;42.706;23.306;2023-08-24T12:04:01;95166.44;;;27.88;44.44
43934;BME280;59081;42.706;23.306;2023-08-24T12:09:05;95113.25;;;27.66;46.33
43934;BME280;59081;42.706;23.306;2023-08-24T12:14:07;94985.16;;;26.22;48.94
43934;BME280;59081;42.706;23.306;2023-08-24T12:19:10;95104.41;;;27.15;49.55
43934;BME280;59081;42.706;23.306;2023-08-24T12:24:13;95016.97;;;27.17;46.72
43934;BME280;59081;42.706;23.306;2023-08-24T12:29:18;95182.66;;;28.08;47.03
43934;BME280;59081;42.706;23.306;2023-08-24T12:34:18;95109.94;;;27.41;46.57
43934;BME280;59081;42.706;23.306;2023-08-24T12:39:19;95227.13;;;28.42;45.23
43934;BME280;59081;42.706;23.306;2023-08-24T12:44:20;95180.28;;;28.41;44.13
43934;BME280;59081;42.706;23.306;2023-08-24T12:49:20;95187.44;;;28.91;43.92
43934;BME280;59081;42.706;23.306;2023-08-24T12:54:21;95175.84;;;28.53;48.41
43934;BME280;59081;42.706;23.306;2023-08-24T12:59:22;95127.78;;;27.91;48.51
43934;BME280;59081;42.706;23.306;2023-08-24T13:04:23;95118.47;;;27.83;46.39
43934;BME280;59081;42.706;23.306;2023-08-24T13:09:26;95261.75;;;28.48;45.73
43934;BME280;59081;42.706;23.306;2023-08-24T13:14:27;95078.19;;;27.69;44.37
43934;BME280;59081;42.706;23.306;2023-08-24T13:19:28;95251.25;;;28.56;46.65
43934;BME280;59081;42.706;23.306;2023-08-24T13:24:29;95090.09;;;27.33;48.13
43934;BME280;59081;42.706;23.306;2023-08-24T13:29:30;95153.66;;;27.95;45.92
43934;BME280;59081;42.706;23.306;2023-08-24T13:34:31;95026.63;;;27.00;46.71
43934;BME280;59081;42.706;23.306;2023-08-24T13:39:31;95164.91;;;28.29;46.04
43934;BME280;59081;42.706;23.306;2023-08-24T13:44:32;95206.28;;;29.17;43.97
43934;BME280;59081;42.706;23.306;2023-08-24T13:49:32;95248.53;;;29.36;43.87
43934;BME280;59081;42.706;23.306;2023-08-24T13:54:34;95151.41;;;28.42;43.95
43934;BME280;59081;42.706;23.306;2023-08-24T13:59:34;95191.63;;;28.98;42.86
43934;BME280;59081;42.706;23.306;2023-08-24T14:04:35;95255.16;;;29.82;41.98
43934;BME280;59081;42.706;23.306;2023-08-24T14:09:35;95035.63;;;28.39;40.52
43934;BME280;59081;42.706;23.306;2023-08-24T14:14:36;95239.03;;;29.69;40.80
43934;BME280;59081;42.706;23.306;2023-08-24T14:19:36;95146.00;;;29.24;40.22
43934;BME280;59081;42.706;23.306;2023-08-24T14:24:36;95223.03;;;29.95;39.97
43934;BME280;59081;42.706;23.306;2023-08-24T14:29:37;95112.69;;;29.17;40.02
43934;BME280;59081;42.706;23.306;2023-08-24T14:34:37;95238.22;;;30.20;38.54
43934;BME280;59081;42.706;23.306;2023-08-24T14:39:38;95221.94;;;30.36;38.45
43934;BME280;59081;42.706;23.306;2023-08-24T14:44:38;95224.63;;;30.64;38.40
43934;BME280;59081;42.706;23.306;2023-08-24T14:49:39;95088.50;;;29.31;40.00
43934;BME280;59081;42.706;23.306;2023-08-24T14:54:39;95194.47;;;30.61;39.17
43934;BME280;59081;42.706;23.306;2023-08-24T14:59:40;95088.59;;;30.23;39.11
43934;BME280;59081;42.706;23.306;2023-08-24T15:04:41;95035.22;;;29.75;39.43
43934;BME280;59081;42.706;23.306;2023-08-24T15:09:41;95174.16;;;30.50;40.02
43934;BME280;59081;42.706;23.306;2023-08-24T15:14:57;95142.19;;;30.34;39.10
43934;BME280;59081;42.706;23.306;2023-08-24T15:19:58;95121.38;;;30.08;39.89
43934;BME280;59081;42.706;23.306;2023-08-24T15:24:59;95145.78;;;30.04;39.69
43934;BME280;59081;42.706;23.306;2023-08-24T15:30:00;95240.16;;;30.63;40.05
43934;BME280;59081;42.706;23.306;2023-08-24T15:35:05;95174.00;;;30.25;40.35
43934;BME280;59081;42.706;23.306;2023-08-24T15:40:06;95156.00;;;30.15;40.04
43934;BME280;59081;42.706;23.306;2023-08-24T15:45:07;95162.03;;;29.88;40.31
43934;BME280;59081;42.706;23.306;2023-08-24T15:50:09;95203.47;;;29.76;41.70
43934;BME280;59081;42.706;23.306;2023-08-24T15:55:09;95131.16;;;29.03;41.91
43934;BME280;59081;42.706;23.306;2023-08-24T16:00:10;95223.38;;;29.32;42.18
43934;BME280;59081;42.706;23.306;2023-08-24T16:05:11;95161.53;;;28.59;42.33
43934;BME280;59081;42.706;23.306;2023-08-24T16:10:11;95246.66;;;29.02;42.92
43934;BME280;59081;42.706;23.306;2023-08-24T16:15:14;95178.66;;;28.25;44.52
43934;BME280;59081;42.706;23.306;2023-08-24T16:20:15;95193.84;;;28.14;46.70
43934;BME280;59081;42.706;23.306;2023-08-24T16:25:15;95143.88;;;27.75;47.46
43934;BME280;59081;42.706;23.306;2023-08-24T16:30:16;95241.69;;;28.38;47.71
43934;BME280;59081;42.706;23.306;2023-08-24T16:35:16;95116.97;;;27.61;48.07
43934;BME280;59081;42.706;23.306;2023-08-24T16:40:17;95230.28;;;28.31;48.83
43934;BME280;59081;42.706;23.306;2023-08-24T16:45:17;95089.84;;;27.11;49.28
43934;BME280;59081;42.706;23.306;2023-08-24T16:50:19;95068.84;;;26.72;49.26
43934;BME280;59081;42.706;23.306;2023-08-24T16:55:19;95056.16;;;26.52;48.68
43934;BME280;59081;42.706;23.306;2023-08-24T17:00:20;95113.59;;;26.94;47.79
43934;BME280;59081;42.706;23.306;2023-08-24T17:05:21;95011.88;;;26.34;48.08
43934;BME280;59081;42.706;23.306;2023-08-24T17:10:22;95202.59;;;27.61;48.07
43934;BME280;59081;42.706;23.306;2023-08-24T17:15:22;95109.78;;;26.92;48.45
43934;BME280;59081;42.706;23.306;2023-08-24T17:20:23;95228.00;;;27.75;48.13
43934;BME280;59081;42.706;23.306;2023-08-24T17:25:24;95034.47;;;26.47;48.13
43934;BME280;59081;42.706;23.306;2023-08-24T17:30:24;95220.22;;;27.67;48.03
43934;BME280;59081;42.706;23.306;2023-08-24T17:35:25;95184.19;;;27.34;48.17
43934;BME280;59081;42.706;23.306;2023-08-24T17:40:27;95216.44;;;27.52;48.88
43934;BME280;59081;42.706;23.306;2023-08-24T17:45:27;95246.03;;;27.51;49.07
43934;BME280;59081;42.706;23.306;2023-08-24T17:50:28;95163.28;;;26.77;49.28
43934;BME280;59081;42.706;23.306;2023-08-24T17:55:29;95150.47;;;26.62;50.45
43934;BME280;59081;42.706;23.306;2023-08-24T18:00:29;95113.88;;;26.30;52.11
43934;BME280;59081;42.706;23.306;2023-08-24T18:05:32;95244.81;;;26.99;53.11
43934;BME280;59081;42.706;23.306;2023-08-24T18:10:36;95074.13;;;25.57;54.75
43934;BME280;59081;42.706;23.306;2023-08-24T18:15:37;95068.75;;;25.40;55.31
43934;BME280;59081;42.706;23.306;2023-08-24T18:20:38;95053.00;;;25.31;55.84
43934;BME280;59081;42.706;23.306;2023-08-24T18:25:40;95250.53;;;26.67;55.71
43934;BME280;59081;42.706;23.306;2023-08-24T18:30:41;95215.84;;;26.40;55.92
43934;BME280;59081;42.706;23.306;2023-08-24T18:35:41;95248.13;;;26.45;56.63
43934;BME280;59081;42.706;23.306;2023-08-24T18:40:42;95279.84;;;26.51;57.23
43934;BME280;59081;42.706;23.306;2023-08-24T18:45:59;95221.44;;;26.14;57.32
43934;BME280;59081;42.706;23.306;2023-08-24T18:51:06;95221.63;;;26.16;57.46
43934;BME280;59081;42.706;23.306;2023-08-24T18:56:06;95247.41;;;26.25;57.80
43934;BME280;59081;42.706;23.306;2023-08-24T19:01:13;95223.38;;;25.74;58.58
43934;BME280;59081;42.706;23.306;2023-08-24T19:06:17;95291.13;;;25.87;58.63
43934;BME280;59081;42.706;23.306;2023-08-24T19:11:18;95193.91;;;25.18;59.12
43934;BME280;59081;42.706;23.306;2023-08-24T19:16:18;95140.47;;;24.70;59.41
43934;BME280;59081;42.706;23.306;2023-08-24T19:21:21;95170.75;;;24.63;60.16
43934;BME280;59081;42.706;23.306;2023-08-24T19:26:26;95198.09;;;24.69;60.62
43934;BME280;59081;42.706;23.306;2023-08-24T19:31:26;95165.47;;;24.36;61.28
43934;BME280;59081;42.706;23.306;2023-08-24T19:36:27;95185.97;;;24.31;61.22
43934;BME280;59081;42.706;23.306;2023-08-24T19:41:28;95226.09;;;24.61;60.71
43934;BME280;59081;42.706;23.306;2023-08-24T19:46:28;95278.66;;;25.02;60.12
43934;BME280;59081;42.706;23.306;2023-08-24T19:51:29;95285.16;;;25.15;60.02
43934;BME280;59081;42.706;23.306;2023-08-24T19:56:29;95232.41;;;24.91;59.76
43934;BME280;59081;42.706;23.306;2023-08-24T20:01:30;95214.63;;;24.78;59.47
43934;BME280;59081;42.706;23.306;2023-08-24T20:06:30;95271.09;;;24.91;60.63
43934;BME280;59081;42.706;23.306;2023-08-24T20:11:31;95216.19;;;24.00;62.67
43934;BME280;59081;42.706;23.306;2023-08-24T20:16:31;95287.63;;;24.51;63.11
43934;BME280;59081;42.706;23.306;2023-08-24T20:21:32;95325.31;;;24.73;62.85
43934;BME280;59081;42.706;23.306;2023-08-24T20:26:33;95248.53;;;24.42;62.56
43934;BME280;59081;42.706;23.306;2023-08-24T20:31:33;95247.16;;;24.54;61.46
43934;BME280;59081;42.706;23.306;2023-08-24T20:36:34;95171.56;;;24.10;61.82
43934;BME280;59081;42.706;23.306;2023-08-24T20:41:34;95227.94;;;24.58;61.47
43934;BME280;59081;42.706;23.306;2023-08-24T20:46:34;95227.03;;;24.69;61.46
43934;BME280;59081;42.706;23.306;2023-08-24T20:51:35;95179.06;;;24.56;61.65
43934;BME280;59081;42.706;23.306;2023-08-24T20:56:35;95249.03;;;24.95;61.39
43934;BME280;59081;42.706;23.306;2023-08-24T21:01:36;95283.09;;;25.16;61.73
43934;BME280;59081;42.706;23.306;2023-08-24T21:06:36;95221.53;;;24.77;61.50
43934;BME280;59081;42.706;23.306;2023-08-24T21:11:37;95155.06;;;24.25;61.60
43934;BME280;59081;42.706;23.306;2023-08-24T21:16:37;95225.69;;;24.76;61.87
43934;BME280;59081;42.706;23.306;2023-08-24T21:21:37;95151.44;;;24.06;61.97
43934;BME280;59081;42.706;23.306;2023-08-24T21:26:38;95263.84;;;24.22;64.21
43934;BME280;59081;42.706;23.306;2023-08-24T21:31:38;95195.44;;;23.73;64.24
43934;BME280;59081;42.706;23.306;2023-08-24T21:36:39;95196.31;;;23.57;65.06
43934;BME280;59081;42.706;23.306;2023-08-24T21:41:39;95192.69;;;23.68;64.96
43934;BME280;59081;42.706;23.306;2023-08-24T21:46:40;95328.91;;;24.43;65.53
43934;BME280;59081;42.706;23.306;2023-08-24T21:51:41;95182.22;;;23.63;65.62
43934;BME280;59081;42.706;23.306;2023-08-24T21:56:41;95292.63;;;24.40;65.26
43934;BME280;59081;42.706;23.306;2023-08-24T22:01:41;95125.47;;;23.29;65.23
43934;BME280;59081;42.706;23.306;2023-08-24T22:06:42;95239.06;;;23.85;65.43
43934;BME280;59081;42.706;23.306;2023-08-24T22:11:43;95199.19;;;23.51;65.35
43934;BME280;59081;42.706;23.306;2023-08-24T22:16:43;95196.84;;;23.55;65.44
43934;BME280;59081;42.706;23.306;2023-08-24T22:21:44;95222.56;;;23.71;66.18
43934;BME280;59081;42.706;23.306;2023-08-24T22:26:45;95215.44;;;23.64;67.12
43934;BME280;59081;42.706;23.306;2023-08-24T22:31:45;95233.50;;;23.74;67.26
43934;BME280;59081;42.706;23.306;2023-08-24T22:36:46;95242.31;;;23.59;68.98
43934;BME280;59081;42.706;23.306;2023-08-24T22:41:46;95169.94;;;23.24;67.96
43934;BME280;59081;42.706;23.306;2023-08-24T22:46:47;95118.59;;;22.88;68.34
43934;BME280;59081;42.706;23.306;2023-08-24T22:51:50;95309.94;;;24.14;69.09
43934;BME280;59081;42.706;23.306;2023-08-24T22:56:54;95079.94;;;22.53;69.15
43934;BME280;59081;42.706;23.306;2023-08-24T23:01:54;95189.69;;;23.13;69.96
43934;BME280;59081;42.706;23.306;2023-08-24T23:11:56;95186.56;;;23.22;70.37
43934;BME280;59081;42.706;23.306;2023-08-24T23:16:56;95182.69;;;23.31;69.52
43934;BME280;59081;42.706;23.306;2023-08-24T23:21:57;95150.34;;;23.19;69.65
43934;BME280;59081;42.706;23.306;2023-08-24T23:27:01;95284.72;;;24.03;69.42
43934;BME280;59081;42.706;23.306;2023-08-24T23:32:02;95079.16;;;22.58;69.98
43934;BME280;59081;42.706;23.306;2023-08-24T23:37:03;95165.69;;;23.12;70.35
43934;BME280;59081;42.706;23.306;2023-08-24T23:42:03;95158.06;;;23.07;70.03
43934;BME280;59081;42.706;23.306;2023-08-24T23:47:04;95150.91;;;23.06;69.87
43934;BME280;59081;42.706;23.306;2023-08-24T23:52:05;95200.84;;;23.30;70.00
43934;BME280;59081;42.706;23.306;2023-08-24T23:57:05;95211.22;;;23.41;70.18
